Current Weather

South Bend Intl

South Bend, Indiana (KSBN)

Report from: Monday, June 24, 2024 4:54 PM EDT
Current time: Tuesday, June 25, 2024 3:38 AM EDT

Nearby weather – Weather history – Daily summaries
Weather forecast

Temperature28.9°C (84.0°F)
Heat index29.2°C (84.5°F)
Dew point15.6°C (60.1°F)
Winds 5 kts (2.6 m/s, 5.8 mph) Vrb
Winds variableWinds variable
Visibility10 mi. (16.1 km)
Clouds Sky clear
Altimeter29.97 in.Hg (1015 mB)
Relative humidity45 %
Density altitude1,806 ft. (551 m)
Sea-level pressure101.4 kPa (1014 mB, 29.95 in.Hg)
Remarks Automated weather observing station with precipitation discriminator
Pressure falling more quickly
Flight conditions Visual Meteorological Conditions
Raw dataKSBN 242054Z VRB05KT 10SM CLR 29/16 A2997 RMK AO2 SLP143 T02890156 58008
An unhandled exception has occurred. See browser dev tools for details. Reload 🗙